Aérodrome :
LOGIN :

S'inscrire | Disclaimer

   EN    FR    IT 

 










Légende :    VFR   VFR Marginal   IFR   IFR Intensif   IFR Très Intensif
Visi : 
Plafond : 
>= 8 km
>= 3000ft
5 à 8 km
1000 à 3000 ft
1500m à 5 km
500 à 1000 ft
800 à 1500m
200 à 500 ft
< 800m
< 200 ft
Symboles :   Orages  Brouillard  Fortes neiges  Fortes précipitations  Vent > 20 kt
SIGMETs :   Divers  Orages  Givrage  Turbulence  Onde Orograph.  Cendres Volcan.







- Altitude de l'aérodrome : 13 ft
- Code IATA : CEQ
- Voir les cartes d'approche


LFMD - Cannes Mandelieu

DERNIER METAR :
  • 250430Z AUTO VRB02KT 9999 OVC027 16/14 Q1017 TEMPO 4000 BR

METARs EXPIRÉS :
  • 250400Z AUTO 00000KT 9999 OVC024 16/14 Q1017 TEMPO 4000 BR
  • 250330Z AUTO VRB02KT 9999 OVC021 16/14 Q1017 TEMPO 4000 BR
  • 250300Z AUTO VRB03KT 9999 OVC020 16/14 Q1017 NOSIG
  • 250230Z AUTO VRB01KT 9999 OVC018 16/14 Q1017 NOSIG
  • 250200Z AUTO VRB02KT 9999 OVC020 16/14 Q1017
  • 250130Z AUTO 00000KT 9999 OVC019 16/14 Q1017

TAF TAF LFMD
Valide du 25 à 03h jusqu'au 26 à 03h UTC


250200Z 2503/2603 VRB02KT 9999 OVC018
PROB40
TEMPO 2505/2508 4000 BR
BECMG 2509/2511 14008KT
BECMG 2517/2519 VRB02KT BKN014
ATIS : +33 4 93 48 73 23
Pas de NOTAMs connus pour ce terrain.



MET'MAP, la Météo Aéronautique d'un coup d'oeil ! - Copyright ORBIFLY Décembre 2007 - Disclaimer

ORBIFLY MET'MAP TEAM :

Programmation & Développement : Alexandra Zaïnal
Conception & Développement : Baudouin d'Aumeries
Co-Programmation & Développement : Marc-Olivier Méhu
Soutien technique & logistique : Manuel Goepfert

Contact : metmap@orbifly.com




SOURCES & CREDITS :

   NOAA